Time;durP1;ratioP1;P1;durP2;ratioP2;P2;SDS_P1;SDS_P2;PMS_P1;PMS_P2;Temp;Humidity;BMP_temperature;BMP_pressure;BME280_temperature;BME280_humidity;BME280_pressure;Samples;Min_cycle;Max_cycle;Signal;HPM_P1;HPM_P2
2022/06/04 00:01:26;;;;;;;;;;;;;;;16.86;77.26;96472.09;5094113;28;20049;-74
2022/06/04 00:03:53;;;;;;;;;;;;;;;16.83;77.29;96460.19;5093501;28;19957;-74
2022/06/04 00:06:19;;;;;;;;;;;;;;;16.81;77.09;96464.94;5092390;28;19959;-74
2022/06/04 00:08:44;;;;;;;;;;;;;;;16.79;77.21;96453.75;5093396;28;19966;-74
2022/06/04 00:16:39;;;;;;;;;;;;;;;16.76;76.60;96461.44;5093847;28;19952;-74
2022/06/04 00:19:05;;;;;;;;;;;;;;;16.76;77.35;96458.81;5093464;28;20004;-75
2022/06/04 00:21:31;;;;;;;;;;;;;;;16.74;77.72;96461.69;5093576;28;19964;-74
2022/06/04 00:23:57;;;;;;;;;;;;;;;16.74;77.70;96468.84;5093454;28;19963;-74
2022/06/04 00:26:23;;;;;;;;;;;;;;;16.73;77.93;96462.72;5093593;28;20328;-74
2022/06/04 00:28:49;;;;;;;;;;;;;;;16.71;77.49;96456.09;5093449;28;20431;-74
2022/06/04 00:31:16;;;;;;;;;;;;;;;16.70;77.31;96465.13;5093247;28;20021;-74
2022/06/04 00:33:42;;;;;;;;;;;;;;;16.69;76.90;96466.94;5075289;28;19971;-74
2022/06/04 00:36:08;;;;;;;;;;;;;;;16.66;77.92;96470.13;5093358;28;19956;-74
2022/06/04 00:38:34;;;;;;;;;;;;;;;16.65;77.43;96465.88;5093277;28;19958;-74
2022/06/04 00:41:03;;;;;;;;;;;;;;;16.62;77.70;96459.22;5093495;28;20018;-74
2022/06/04 00:43:29;;;;;;;;;;;;;;;16.61;77.66;96462.94;5093348;28;19962;-74
2022/06/04 00:46:13;;;;;;;;;;;;;;;16.59;77.56;96464.25;5093189;28;19964;-75
2022/06/04 00:48:39;;;;;;;;;;;;;;;16.55;77.26;96461.31;5093314;28;20018;-74
2022/06/04 00:51:05;;;;;;;;;;;;;;;16.52;77.36;96459.16;5092968;28;20467;-75
2022/06/04 00:53:31;;;;;;;;;;;;;;;16.50;77.67;96463.91;5093121;28;19973;-74
2022/06/04 00:56:20;;;;;;;;;;;;;;;16.46;78.03;96460.19;5093895;28;19978;-74
2022/06/04 00:58:46;;;;;;;;;;;;;;;16.41;77.48;96453.00;5091059;28;19953;-74
2022/06/04 01:01:26;;;;;;;;;;;;;;;16.39;77.55;96455.13;5096381;28;20427;-74
2022/06/04 01:04:08;;;;;;;;;;;;;;;16.37;77.54;96453.78;5085046;28;19966;-74
2022/06/04 01:06:39;;;;;;;;;;;;;;;16.33;77.48;96458.78;5096939;28;19948;-74
2022/06/04 01:09:15;;;;;;;;;;;;;;;16.30;77.27;96456.66;5096804;28;20415;-74
2022/06/04 01:14:39;;;;;;;;;;;;;;;16.23;77.07;96464.00;5094458;28;19963;-75
2022/06/04 01:17:12;;;;;;;;;;;;;;;16.20;77.10;96469.81;5096987;28;19949;-74
2022/06/04 01:19:56;;;;;;;;;;;;;;;16.18;77.73;96485.13;5080669;28;20077;-74
2022/06/04 01:22:28;;;;;;;;;;;;;;;16.15;77.87;96490.94;5096407;28;19950;-74
2022/06/04 01:25:13;;;;;;;;;;;;;;;16.12;77.87;96489.56;5096358;28;20319;-74
2022/06/04 01:27:49;;;;;;;;;;;;;;;16.10;78.16;96499.63;5096480;28;20436;-74
2022/06/04 01:30:20;;;;;;;;;;;;;;;16.09;78.07;96497.25;5096441;28;19985;-74
2022/06/04 01:32:52;;;;;;;;;;;;;;;16.06;77.96;96497.72;5081921;28;19974;-74
2022/06/04 01:35:25;;;;;;;;;;;;;;;16.01;77.75;96501.91;5096808;28;19964;-75
2022/06/04 01:38:09;;;;;;;;;;;;;;;15.97;77.50;96498.19;5096158;28;19957;-74
2022/06/04 01:43:25;;;;;;;;;;;;;;;15.89;77.76;96495.19;5079804;28;19952;-75
2022/06/04 01:45:53;;;;;;;;;;;;;;;15.86;77.78;96488.56;5095880;28;19958;-75
2022/06/04 01:48:20;;;;;;;;;;;;;;;15.82;77.98;96490.09;5077970;28;19953;-75
2022/06/04 01:50:48;;;;;;;;;;;;;;;15.79;77.94;96491.41;5095906;28;20406;-74
2022/06/04 01:53:15;;;;;;;;;;;;;;;15.76;77.84;96488.47;5077869;28;19976;-74
2022/06/04 01:55:49;;;;;;;;;;;;;;;15.73;77.87;96496.91;5095780;28;19954;-74
2022/06/04 01:58:18;;;;;;;;;;;;;;;15.71;77.77;96485.75;5095988;28;19952;-74
2022/06/04 02:00:47;;;;;;;;;;;;;;;15.68;78.00;96494.97;5095909;28;19959;-74
2022/06/04 02:03:46;;;;;;;;;;;;;;;15.65;78.42;96495.47;5094617;28;19962;-75
2022/06/04 02:06:14;;;;;;;;;;;;;;;15.62;78.32;96490.66;5050866;28;20004;-74
2022/06/04 02:08:45;;;;;;;;;;;;;;;15.61;78.21;96489.06;5095751;28;19952;-74
2022/06/04 02:11:12;;;;;;;;;;;;;;;15.58;78.31;96481.63;5095407;28;19958;-74
2022/06/04 02:13:39;;;;;;;;;;;;;;;15.55;78.31;96472.34;5095410;28;20336;-75
2022/06/04 02:16:12;;;;;;;;;;;;;;;15.52;78.22;96470.22;5095852;28;19959;-74
2022/06/04 02:18:38;;;;;;;;;;;;;;;15.51;78.48;96467.81;5077287;28;19952;-74
2022/06/04 02:21:04;;;;;;;;;;;;;;;15.47;78.34;96470.16;5095425;28;20416;-74
2022/06/04 02:23:30;;;;;;;;;;;;;;;15.47;78.43;96475.44;5094567;28;19962;-74
2022/06/04 02:25:56;;;;;;;;;;;;;;;15.46;78.39;96473.06;5095211;28;19953;-75
2022/06/04 02:28:22;;;;;;;;;;;;;;;15.45;78.96;96474.09;5095412;28;19958;-74
2022/06/04 02:31:09;;;;;;;;;;;;;;;15.43;79.83;96477.81;5094861;28;20354;-75
2022/06/04 02:33:57;;;;;;;;;;;;;;;15.40;79.69;96464.28;5080636;28;19973;-74
2022/06/04 02:36:34;;;;;;;;;;;;;;;15.38;78.70;96463.72;5079945;28;19957;-74
2022/06/04 02:39:15;;;;;;;;;;;;;;;15.35;78.58;96457.09;5094288;28;19949;-74
2022/06/04 02:41:45;;;;;;;;;;;;;;;15.33;78.32;96459.19;5086045;28;19978;-74
2022/06/04 02:44:23;;;;;;;;;;;;;;;15.31;78.10;96452.56;5093413;28;19952;-74
2022/06/04 02:46:52;;;;;;;;;;;;;;;15.29;78.44;96447.50;5095121;28;19958;-73
2022/06/04 02:49:23;;;;;;;;;;;;;;;15.27;78.68;96457.53;5094733;28;19966;-74
2022/06/04 02:51:54;;;;;;;;;;;;;;;15.24;79.00;96452.72;5094772;28;19963;-75
2022/06/04 02:54:24;;;;;;;;;;;;;;;15.22;79.15;96437.16;5094614;28;19952;-74
2022/06/04 02:56:52;;;;;;;;;;;;;;;15.20;79.25;96433.94;5094557;28;19967;-74
2022/06/04 02:59:18;;;;;;;;;;;;;;;15.21;79.37;96437.38;5094687;28;19965;-74
2022/06/04 03:01:47;;;;;;;;;;;;;;;15.20;79.63;96448.97;5076366;28;19967;-74
2022/06/04 03:04:13;;;;;;;;;;;;;;;15.18;80.62;96446.59;5094555;28;20313;-74
2022/06/04 03:06:39;;;;;;;;;;;;;;;15.19;81.02;96450.84;5094596;28;19960;-74
2022/06/04 03:09:06;;;;;;;;;;;;;;;15.20;81.42;96443.69;5076062;28;19950;-75
2022/06/04 03:11:36;;;;;;;;;;;;;;;15.22;81.49;96453.00;5094531;28;19961;-74
2022/06/04 03:14:02;;;;;;;;;;;;;;;15.20;80.39;96451.63;5093524;28;20389;-74
2022/06/04 03:16:38;;;;;;;;;;;;;;;15.18;79.94;96454.53;5094476;28;20041;-74
2022/06/04 03:19:07;;;;;;;;;;;;;;;15.17;79.79;96460.06;5093796;28;19950;-74
2022/06/04 03:21:34;;;;;;;;;;;;;;;15.14;80.75;96456.06;5094309;28;19952;-74
2022/06/04 03:24:00;;;;;;;;;;;;;;;15.15;80.89;96470.06;5094305;28;20317;-75
2022/06/04 03:26:26;;;;;;;;;;;;;;;15.15;81.06;96478.78;5094306;28;19961;-74
2022/06/04 03:28:51;;;;;;;;;;;;;;;15.16;81.11;96476.94;5094102;28;19945;-74
2022/06/04 03:31:17;;;;;;;;;;;;;;;15.14;81.06;96485.13;5094388;28;19977;-74
2022/06/04 03:33:43;;;;;;;;;;;;;;;15.13;80.65;96488.78;5093768;28;19972;-74
2022/06/04 03:36:10;;;;;;;;;;;;;;;15.14;81.21;96495.69;5092767;28;20427;-75
2022/06/04 03:38:36;;;;;;;;;;;;;;;15.16;81.36;96498.88;5094163;28;19945;-74
2022/06/04 03:41:02;;;;;;;;;;;;;;;15.17;81.61;96497.81;5093718;28;19969;-74
2022/06/04 03:43:28;;;;;;;;;;;;;;;15.17;81.84;96500.47;5093422;28;20000;-74
2022/06/04 03:45:54;;;;;;;;;;;;;;;15.17;81.67;96497.81;5093775;28;19959;-74
2022/06/04 03:48:20;;;;;;;;;;;;;;;15.16;81.71;96501.53;5093678;28;19955;-75
2022/06/04 03:50:46;;;;;;;;;;;;;;;15.15;81.86;96488.56;5094076;28;19958;-74
2022/06/04 03:53:12;;;;;;;;;;;;;;;15.12;81.36;96486.38;5092619;28;20054;-75
2022/06/04 03:55:37;;;;;;;;;;;;;;;15.12;81.49;96484.56;5093960;28;20003;-74
2022/06/04 03:58:03;;;;;;;;;;;;;;;15.12;81.63;96474.00;5093820;28;20003;-74
2022/06/04 04:00:34;;;;;;;;;;;;;;;15.14;81.95;96477.19;5094047;28;20337;-76
2022/06/04 04:03:02;;;;;;;;;;;;;;;15.13;82.49;96480.88;5093666;28;19953;-75
2022/06/04 04:05:39;;;;;;;;;;;;;;;15.16;83.07;96475.13;5081383;28;19966;-74
2022/06/04 04:08:06;;;;;;;;;;;;;;;15.18;83.01;96473.03;5093887;28;19947;-74
2022/06/04 04:10:33;;;;;;;;;;;;;;;15.22;84.96;96483.88;5093463;28;19966;-75
2022/06/04 04:12:59;;;;;;;;;;;;;;;15.27;84.46;96480.53;5093635;28;19991;-74
2022/06/04 04:15:26;;;;;;;;;;;;;;;15.35;84.11;96472.13;5093481;28;19949;-74
2022/06/04 04:17:52;;;;;;;;;;;;;;;15.46;84.03;96473.06;5093395;28;19959;-74
2022/06/04 04:20:25;;;;;;;;;;;;;;;15.57;83.65;96474.75;5093398;28;20355;-75
2022/06/04 04:22:51;;;;;;;;;;;;;;;15.69;84.25;96461.41;5093415;28;19954;-74
2022/06/04 04:25:19;;;;;;;;;;;;;;;15.78;83.86;96450.13;5093372;28;20341;-75
2022/06/04 04:27:45;;;;;;;;;;;;;;;15.92;83.00;96449.75;5093355;28;19968;-74
2022/06/04 04:30:12;;;;;;;;;;;;;;;16.08;83.46;96440.06;5093043;28;20025;-74
2022/06/04 04:32:39;;;;;;;;;;;;;;;16.20;82.85;96433.56;5096943;28;19987;-74
2022/06/04 04:35:06;;;;;;;;;;;;;;;16.31;82.23;96423.03;5097396;28;19957;-75
2022/06/04 04:37:32;;;;;;;;;;;;;;;16.39;82.46;96433.16;5097503;28;19945;-74
2022/06/04 04:39:58;;;;;;;;;;;;;;;16.46;81.99;96440.88;5097470;28;20009;-74
2022/06/04 04:42:24;;;;;;;;;;;;;;;16.55;83.30;96461.31;5097250;28;20037;-74
2022/06/04 04:44:50;;;;;;;;;;;;;;;16.63;82.35;96470.63;5097066;28;19998;-74
2022/06/04 04:47:16;;;;;;;;;;;;;;;16.64;81.93;96470.38;5097802;28;20009;-74
2022/06/04 04:49:42;;;;;;;;;;;;;;;16.64;81.82;96488.13;5097089;28;19954;-75
2022/06/04 04:52:08;;;;;;;;;;;;;;;16.62;81.49;96490.22;5096641;28;20002;-74
2022/06/04 04:54:34;;;;;;;;;;;;;;;16.59;82.15;96488.88;5096967;28;19958;-75
2022/06/04 04:57:09;;;;;;;;;;;;;;;16.53;82.04;96494.41;5097157;28;19952;-74
2022/06/04 04:59:35;;;;;;;;;;;;;;;16.47;83.11;96500.72;5097115;28;20024;-74
2022/06/04 05:02:00;;;;;;;;;;;;;;;16.43;82.80;96497.75;5096898;28;19960;-75
2022/06/04 05:04:26;;;;;;;;;;;;;;;16.37;83.83;96499.56;5097036;28;19961;-74
2022/06/04 05:06:52;;;;;;;;;;;;;;;16.36;83.64;96503.28;5096873;28;20039;-74
2022/06/04 05:09:18;;;;;;;;;;;;;;;16.38;83.85;96503.81;5096911;28;20011;-74
2022/06/04 05:11:44;;;;;;;;;;;;;;;16.42;83.23;96507.56;5096578;28;20418;-75
2022/06/04 05:14:10;;;;;;;;;;;;;;;16.45;84.26;96516.84;5096939;28;19970;-74
2022/06/04 05:16:38;;;;;;;;;;;;;;;16.46;84.42;96518.41;5096526;28;20047;-74
2022/06/04 05:19:04;;;;;;;;;;;;;;;16.48;83.74;96518.19;5096559;28;19951;-74
2022/06/04 05:21:36;;;;;;;;;;;;;;;16.50;84.68;96526.66;5096749;28;19977;-74
2022/06/04 05:24:02;;;;;;;;;;;;;;;16.52;84.26;96537.78;5096511;28;20396;-75
2022/06/04 05:26:28;;;;;;;;;;;;;;;16.53;85.58;96563.22;5096137;28;19959;-74
2022/06/04 05:28:54;;;;;;;;;;;;;;;16.58;87.86;96579.16;5096486;28;19951;-74
2022/06/04 05:31:20;;;;;;;;;;;;;;;16.59;84.60;96562.22;5096249;28;19993;-75
2022/06/04 05:33:46;;;;;;;;;;;;;;;16.58;86.21;96581.78;5096495;28;20500;-74
2022/06/04 05:36:13;;;;;;;;;;;;;;;16.58;86.23;96597.69;5096425;28;19963;-74
2022/06/04 05:38:40;;;;;;;;;;;;;;;16.55;86.54;96622.03;5078083;28;19949;-74
2022/06/04 05:41:07;;;;;;;;;;;;;;;16.51;87.83;96631.53;5096174;28;20355;-74
2022/06/04 05:43:34;;;;;;;;;;;;;;;16.41;88.63;96642.78;5095889;28;20388;-75
2022/06/04 05:46:08;;;;;;;;;;;;;;;16.32;88.71;96647.75;5096193;28;20429;-74
2022/06/04 05:48:38;;;;;;;;;;;;;;;16.22;87.57;96650.28;5096325;28;20432;-74
2022/06/04 05:51:04;;;;;;;;;;;;;;;16.19;86.95;96659.53;5095376;28;19963;-74
2022/06/04 05:53:30;;;;;;;;;;;;;;;16.21;88.29;96659.25;5095710;28;20422;-75
2022/06/04 05:55:56;;;;;;;;;;;;;;;16.21;88.62;96652.13;5095972;28;20038;-74
2022/06/04 05:58:22;;;;;;;;;;;;;;;16.18;91.46;96647.31;5095756;28;19952;-74
2022/06/04 06:00:47;;;;;;;;;;;;;;;16.18;90.66;96649.19;5096095;28;19961;-74
2022/06/04 06:03:13;;;;;;;;;;;;;;;16.20;91.16;96655.81;5095777;28;19998;-74
2022/06/04 06:05:44;;;;;;;;;;;;;;;16.21;91.55;96654.78;5095657;28;20438;-74
2022/06/04 06:08:10;;;;;;;;;;;;;;;16.22;91.28;96645.00;5095798;28;19955;-74
2022/06/04 06:10:40;;;;;;;;;;;;;;;16.26;90.45;96635.50;5095494;28;20410;-74
2022/06/04 06:13:06;;;;;;;;;;;;;;;16.32;90.00;96634.50;5095646;28;19963;-74
2022/06/04 06:15:33;;;;;;;;;;;;;;;16.38;91.46;96627.44;5080049;28;20391;-74
2022/06/04 06:17:59;;;;;;;;;;;;;;;16.43;92.84;96617.66;5077504;28;19957;-74
2022/06/04 06:20:24;;;;;;;;;;;;;;;16.44;92.22;96590.16;5094431;28;20416;-74
2022/06/04 06:22:50;;;;;;;;;;;;;;;16.46;96.58;96575.88;5095571;28;20388;-74
2022/06/04 06:25:16;;;;;;;;;;;;;;;16.45;93.47;96569.78;5094687;28;20014;-74
2022/06/04 06:27:42;;;;;;;;;;;;;;;16.44;93.28;96576.94;5095255;28;19954;-74
2022/06/04 06:30:09;;;;;;;;;;;;;;;16.50;92.97;96571.66;5095222;28;19979;-74
2022/06/04 06:32:36;;;;;;;;;;;;;;;16.53;93.06;96544.69;5095152;28;19954;-74
2022/06/04 06:35:02;;;;;;;;;;;;;;;16.56;93.17;96531.72;5095193;28;20340;-74
2022/06/04 06:37:29;;;;;;;;;;;;;;;16.59;93.83;96549.00;5094439;28;19956;-74
2022/06/04 06:39:55;;;;;;;;;;;;;;;16.61;93.78;96534.44;5094991;28;19951;-74
2022/06/04 06:42:22;;;;;;;;;;;;;;;16.62;93.39;96525.44;5095019;28;19967;-74
2022/06/04 06:44:48;;;;;;;;;;;;;;;16.66;94.05;96517.78;5094746;28;19957;-74
2022/06/04 06:47:14;;;;;;;;;;;;;;;16.69;93.23;96514.59;5077156;28;19972;-74
2022/06/04 06:49:39;;;;;;;;;;;;;;;16.73;94.19;96514.91;5093738;28;19961;-74
2022/06/04 06:52:06;;;;;;;;;;;;;;;16.76;94.31;96512.56;5077203;28;20004;-74
2022/06/04 06:54:34;;;;;;;;;;;;;;;16.80;93.03;96511.03;5075900;28;19972;-74
2022/06/04 06:57:01;;;;;;;;;;;;;;;16.86;94.05;96521.63;5094738;28;19957;-74
2022/06/04 06:59:27;;;;;;;;;;;;;;;16.89;92.91;96537.03;5094483;28;19945;-75
2022/06/04 07:01:54;;;;;;;;;;;;;;;16.94;92.23;96550.28;5094471;28;19958;-75
2022/06/04 07:04:25;;;;;;;;;;;;;;;17.01;91.12;96561.47;5094649;28;19956;-75
2022/06/04 07:07:03;;;;;;;;;;;;;;;17.20;92.44;96585.72;5076302;28;19958;-75
2022/06/04 07:09:31;;;;;;;;;;;;;;;17.44;94.44;96581.56;5094823;28;19953;-75
2022/06/04 07:11:57;;;;;;;;;;;;;;;17.70;95.38;96591.50;5094459;28;20405;-75
2022/06/04 07:14:23;;;;;;;;;;;;;;;17.94;89.80;96592.66;5094395;28;19971;-76
2022/06/04 07:16:49;;;;;;;;;;;;;;;18.01;91.05;96595.06;5094204;28;19959;-75
2022/06/04 07:19:17;;;;;;;;;;;;;;;17.99;90.78;96594.53;5094597;28;19995;-75
2022/06/04 07:21:43;;;;;;;;;;;;;;;17.95;89.80;96599.56;5094113;28;20446;-76
2022/06/04 07:24:10;;;;;;;;;;;;;;;17.95;91.04;96585.50;5094104;28;19960;-76
2022/06/04 07:26:37;;;;;;;;;;;;;;;17.96;89.63;96571.97;5083217;28;19958;-75
2022/06/04 07:29:03;;;;;;;;;;;;;;;18.00;89.67;96570.41;5093997;28;19952;-75
2022/06/04 07:31:31;;;;;;;;;;;;;;;18.04;90.48;96552.91;5094327;28;19982;-75
2022/06/04 07:34:03;;;;;;;;;;;;;;;18.08;90.96;96542.56;5059093;28;19975;-75
2022/06/04 07:36:33;;;;;;;;;;;;;;;18.12;89.95;96538.31;5075950;28;20357;-75
2022/06/04 07:38:59;;;;;;;;;;;;;;;18.22;89.57;96545.47;5094080;28;19957;-75
2022/06/04 07:41:27;;;;;;;;;;;;;;;18.35;91.08;96547.63;5093982;28;20320;-76
2022/06/04 07:43:53;;;;;;;;;;;;;;;18.61;90.01;96548.41;5093848;28;19957;-75
2022/06/04 07:46:37;;;;;;;;;;;;;;;19.26;89.51;96553.91;5077751;28;19971;-75
2022/06/04 07:49:06;;;;;;;;;;;;;;;19.76;86.69;96562.00;5093920;28;20019;-75
2022/06/04 07:51:33;;;;;;;;;;;;;;;19.99;81.96;96571.19;5094212;28;19955;-75
2022/06/04 07:53:59;;;;;;;;;;;;;;;20.24;81.99;96578.25;5093593;28;19977;-76
2022/06/04 07:56:25;;;;;;;;;;;;;;;20.35;79.28;96588.78;5093781;28;19967;-75
2022/06/04 07:58:51;;;;;;;;;;;;;;;20.27;79.27;96590.19;5094119;28;19955;-77
2022/06/04 08:01:18;;;;;;;;;;;;;;;20.19;81.69;96596.09;5093568;28;19970;-75
2022/06/04 08:03:44;;;;;;;;;;;;;;;20.30;83.34;96607.50;5093713;28;19976;-75
2022/06/04 08:06:13;;;;;;;;;;;;;;;20.29;83.23;96601.38;5093511;28;19959;-76
2022/06/04 08:08:39;;;;;;;;;;;;;;;20.22;81.94;96598.19;5092257;28;19965;-77
2022/06/04 08:11:30;;;;;;;;;;;;;;;20.30;82.69;96599.50;5093571;28;19966;-76
2022/06/04 08:13:52;;;;;;;;;;;;;;;20.59;83.79;96591.59;5093467;28;20342;-76
2022/06/04 08:16:18;;;;;;;;;;;;;;;20.79;80.01;96596.78;5093595;28;19948;-75
2022/06/04 08:19:03;;;;;;;;;;;;;;;20.71;77.61;96600.03;5093819;28;20305;-75
2022/06/04 08:21:31;;;;;;;;;;;;;;;20.60;79.07;96598.50;5093430;28;19945;-75
2022/06/04 08:23:57;;;;;;;;;;;;;;;20.54;78.42;96597.75;5093856;28;19968;-75
2022/06/04 08:26:23;;;;;;;;;;;;;;;20.54;79.09;96589.75;5075473;28;19984;-74
2022/06/04 08:28:50;;;;;;;;;;;;;;;20.69;79.98;96594.19;5093481;28;19963;-75
2022/06/04 08:31:16;;;;;;;;;;;;;;;20.82;78.92;96588.19;5093530;28;20443;-74
2022/06/04 08:33:51;;;;;;;;;;;;;;;21.03;76.89;96586.16;5090039;28;19980;-75
2022/06/04 08:36:19;;;;;;;;;;;;;;;21.11;76.33;96584.75;5093205;28;20362;-74
2022/06/04 08:38:45;;;;;;;;;;;;;;;21.40;76.01;96584.72;5093493;28;19959;-76
2022/06/04 08:41:34;;;;;;;;;;;;;;;21.73;75.25;96581.41;5093395;28;20315;-74
2022/06/04 08:44:13;;;;;;;;;;;;;;;22.07;74.28;96576.69;5093245;28;19950;-74
2022/06/04 08:46:46;;;;;;;;;;;;;;;22.29;73.61;96580.69;5093080;28;19963;-74
2022/06/04 08:49:14;;;;;;;;;;;;;;;22.59;72.88;96571.41;5093056;28;19958;-74
2022/06/04 08:51:41;;;;;;;;;;;;;;;22.52;70.21;96580.91;5093551;28;19950;-75
2022/06/04 08:59:56;;;;;;;;;;;;;;;22.32;72.28;96603.34;5093310;28;19956;-74
2022/06/04 09:02:25;;;;;;;;;;;;;;;22.22;71.85;96609.63;5093155;28;19967;-74
2022/06/04 09:05:17;;;;;;;;;;;;;;;22.18;70.86;96603.28;5093133;28;19954;-74
2022/06/04 09:07:52;;;;;;;;;;;;;;;22.20;71.74;96599.22;5077821;28;20332;-74
2022/06/04 09:10:30;;;;;;;;;;;;;;;22.38;73.55;96599.53;5074949;28;19960;-74
2022/06/04 09:12:56;;;;;;;;;;;;;;;22.39;70.57;96588.56;5091656;28;19962;-75
2022/06/04 09:15:29;;;;;;;;;;;;;;;22.30;71.40;96587.66;5093110;28;20316;-74
2022/06/04 09:17:57;;;;;;;;;;;;;;;22.34;73.69;96588.63;5077656;28;20321;-74
2022/06/04 09:20:29;;;;;;;;;;;;;;;22.39;72.23;96580.56;5096335;28;19961;-74
2022/06/04 09:23:05;;;;;;;;;;;;;;;22.39;71.41;96580.56;5096620;28;19959;-74
2022/06/04 09:25:43;;;;;;;;;;;;;;;22.35;71.72;96582.22;5096677;28;19951;-74
2022/06/04 09:28:12;;;;;;;;;;;;;;;22.31;70.25;96599.91;5095888;28;19954;-74
2022/06/04 09:30:48;;;;;;;;;;;;;;;22.22;72.38;96623.00;5096799;28;19980;-74
2022/06/04 09:33:33;;;;;;;;;;;;;;;22.16;72.12;96621.47;5096288;28;19953;-74
2022/06/04 09:35:59;;;;;;;;;;;;;;;22.03;73.20;96625.66;5095381;28;19965;-74
2022/06/04 09:38:33;;;;;;;;;;;;;;;21.95;73.34;96632.41;5096118;28;19955;-74
2022/06/04 09:41:00;;;;;;;;;;;;;;;21.96;73.01;96625.19;5096263;28;19958;-74
2022/06/04 09:43:27;;;;;;;;;;;;;;;22.05;72.66;96616.25;5096356;28;19961;-74
2022/06/04 09:45:56;;;;;;;;;;;;;;;22.38;71.91;96616.34;5095730;28;19977;-74
2022/06/04 09:48:24;;;;;;;;;;;;;;;22.33;69.64;96621.78;5095817;28;20004;-74
2022/06/04 09:50:55;;;;;;;;;;;;;;;22.19;71.57;96647.59;5096113;28;19957;-74
2022/06/04 09:53:26;;;;;;;;;;;;;;;22.00;71.46;96648.34;5095724;28;19960;-74
2022/06/04 09:55:57;;;;;;;;;;;;;;;21.90;73.04;96675.19;5095084;28;20422;-74
2022/06/04 09:58:28;;;;;;;;;;;;;;;21.80;73.65;96676.09;5095878;28;20300;-73
2022/06/04 10:01:02;;;;;;;;;;;;;;;21.73;73.60;96648.94;5094839;28;19964;-74
2022/06/04 10:03:29;;;;;;;;;;;;;;;21.64;74.27;96654.13;5083760;28;19965;-74
2022/06/04 10:06:04;;;;;;;;;;;;;;;21.57;74.79;96658.22;5095627;28;19966;-74
2022/06/04 10:08:31;;;;;;;;;;;;;;;21.44;76.98;96665.81;5096139;28;19956;-74
2022/06/04 10:10:58;;;;;;;;;;;;;;;21.33;75.31;96672.28;5095671;28;19958;-74
2022/06/04 10:13:45;;;;;;;;;;;;;;;21.24;76.88;96676.63;5095805;28;19961;-73
2022/06/04 10:16:30;;;;;;;;;;;;;;;21.18;78.27;96659.88;5095739;28;20313;-74
2022/06/04 10:18:56;;;;;;;;;;;;;;;21.18;77.66;96638.53;5096042;28;19956;-74
2022/06/04 10:21:27;;;;;;;;;;;;;;;21.18;76.66;96643.88;5095369;28;19993;-74
2022/06/04 10:23:55;;;;;;;;;;;;;;;21.17;78.21;96647.63;5095237;28;19953;-74
2022/06/04 10:26:40;;;;;;;;;;;;;;;21.25;77.49;96654.22;5095501;28;20302;-74
2022/06/04 10:29:25;;;;;;;;;;;;;;;21.25;76.20;96663.03;5094058;28;19949;-74
2022/06/04 10:32:41;;;;;;;;;;;;;;;21.14;76.84;96677.50;5092706;28;19973;-74
2022/06/04 10:35:19;;;;;;;;;;;;;;;21.03;76.43;96679.47;5095465;28;19978;-74
2022/06/04 10:37:46;;;;;;;;;;;;;;;20.95;77.23;96679.28;5095000;28;19955;-73
2022/06/04 10:40:30;;;;;;;;;;;;;;;20.90;78.01;96693.44;5094936;28;19959;-74
2022/06/04 10:42:56;;;;;;;;;;;;;;;20.81;79.90;96692.44;5095140;28;19955;-74
2022/06/04 10:45:28;;;;;;;;;;;;;;;20.72;79.16;96688.78;5094897;28;20014;-74
2022/06/04 10:48:06;;;;;;;;;;;;;;;20.65;80.29;96683.75;5095025;28;19966;-74
2022/06/04 10:53:52;;;;;;;;;;;;;;;20.63;80.41;96675.25;5095013;28;20445;-74
2022/06/04 10:56:21;;;;;;;;;;;;;;;20.66;81.17;96670.16;5094749;28;19962;-74
2022/06/04 10:58:54;;;;;;;;;;;;;;;20.66;81.63;96677.34;5094739;28;19955;-74
2022/06/04 11:01:26;;;;;;;;;;;;;;;20.68;81.26;96686.66;5095252;28;20312;-74
2022/06/04 11:03:52;;;;;;;;;;;;;;;20.72;81.51;96684.22;5094696;28;19984;-75
2022/06/04 11:06:21;;;;;;;;;;;;;;;20.75;80.90;96680.25;5094841;28;20431;-74
2022/06/04 11:08:51;;;;;;;;;;;;;;;20.77;80.60;96678.09;5094430;28;19968;-74
2022/06/04 11:11:17;;;;;;;;;;;;;;;20.73;79.46;96687.72;5094802;28;19962;-74
2022/06/04 11:13:59;;;;;;;;;;;;;;;20.70;79.39;96690.91;5094403;28;20013;-74
2022/06/04 11:16:34;;;;;;;;;;;;;;;20.70;78.74;96688.25;5086665;28;19954;-74
2022/06/04 11:19:05;;;;;;;;;;;;;;;20.68;79.34;96689.34;5094200;28;19959;-74
2022/06/04 11:21:40;;;;;;;;;;;;;;;20.70;79.54;96691.72;5094552;28;19950;-74
2022/06/04 11:24:15;;;;;;;;;;;;;;;20.73;80.29;96687.72;5094512;28;19978;-74
2022/06/04 11:26:48;;;;;;;;;;;;;;;20.76;80.83;96689.81;5094184;28;19945;-74
2022/06/04 11:29:14;;;;;;;;;;;;;;;20.77;80.45;96684.22;5094422;28;20325;-77
2022/06/04 11:31:46;;;;;;;;;;;;;;;20.81;80.78;96673.78;5075793;28;19988;-74
2022/06/04 11:34:25;;;;;;;;;;;;;;;20.83;79.34;96679.63;5094269;28;19966;-74
2022/06/04 11:36:54;;;;;;;;;;;;;;;20.87;80.50;96686.81;5094031;28;19962;-74
2022/06/04 11:39:20;;;;;;;;;;;;;;;20.92;79.54;96685.97;5093334;28;19954;-74
2022/06/04 11:41:57;;;;;;;;;;;;;;;20.97;79.11;96685.13;5093814;28;19949;-74
2022/06/04 11:44:28;;;;;;;;;;;;;;;21.02;80.38;96691.22;5093622;28;19949;-74
2022/06/04 11:47:06;;;;;;;;;;;;;;;21.07;80.20;96690.38;5093914;28;19961;-74
2022/06/04 11:49:37;;;;;;;;;;;;;;;21.12;78.30;96686.88;5093945;28;19952;-74
2022/06/04 11:52:32;;;;;;;;;;;;;;;21.16;78.35;96688.69;5083592;28;19953;-74
2022/06/04 11:55:01;;;;;;;;;;;;;;;21.20;78.69;96695.06;5081294;28;19977;-74
2022/06/04 11:57:32;;;;;;;;;;;;;;;21.33;79.52;96690.94;5093756;28;19960;-74
2022/06/04 12:00:22;;;;;;;;;;;;;;;21.59;79.21;96693.44;5098241;28;19961;-74
2022/06/04 12:02:48;;;;;;;;;;;;;;;21.97;79.55;96697.00;5093691;28;19952;-74
2022/06/04 12:05:35;;;;;;;;;;;;;;;22.34;77.20;96689.38;5093596;28;20004;-74
2022/06/04 12:08:04;;;;;;;;;;;;;;;22.70;74.59;96690.47;5093458;28;19958;-74
2022/06/04 12:10:49;;;;;;;;;;;;;;;23.02;72.56;96667.56;5094119;28;20306;-74
2022/06/04 12:13:33;;;;;;;;;;;;;;;23.31;67.21;96639.78;5093487;28;19952;-74
2022/06/04 12:16:05;;;;;;;;;;;;;;;23.46;70.17;96662.81;5093961;28;19966;-74
2022/06/04 12:19:06;;;;;;;;;;;;;;;23.69;69.46;96666.41;5045073;28;19958;-74
2022/06/04 12:24:22;;;;;;;;;;;;;;;24.10;66.15;96644.16;5092767;28;19961;-74
2022/06/04 12:26:48;;;;;;;;;;;;;;;24.16;63.31;96624.22;5093500;28;19961;-74
2022/06/04 12:29:31;;;;;;;;;;;;;;;24.11;64.66;96643.09;5093471;28;19962;-74
2022/06/04 12:31:58;;;;;;;;;;;;;;;24.25;66.70;96659.94;5093187;28;19976;-74
2022/06/04 12:34:35;;;;;;;;;;;;;;;24.24;62.75;96630.75;5093340;28;19976;-74
2022/06/04 12:37:01;;;;;;;;;;;;;;;24.32;64.81;96640.75;5093633;28;19962;-74
2022/06/04 12:39:28;;;;;;;;;;;;;;;24.48;66.18;96659.97;5075387;28;19959;-74
2022/06/04 12:41:55;;;;;;;;;;;;;;;24.64;63.03;96626.38;5093213;28;19957;-74
2022/06/04 12:44:41;;;;;;;;;;;;;;;24.79;63.25;96635.94;5093209;28;19955;-74
2022/06/04 12:47:10;;;;;;;;;;;;;;;24.95;63.04;96625.66;5093324;28;19975;-74
2022/06/04 12:49:42;;;;;;;;;;;;;;;24.94;61.41;96613.31;5093325;28;19953;-74
2022/06/04 12:52:27;;;;;;;;;;;;;;;24.88;62.15;96614.53;5094312;28;19954;-77
2022/06/04 12:54:55;;;;;;;;;;;;;;;24.91;61.13;96608.59;5084304;28;19978;-74
2022/06/04 12:57:30;;;;;;;;;;;;;;;24.96;62.28;96623.75;5097200;28;20408;-74
2022/06/04 13:00:25;;;;;;;;;;;;;;;25.11;64.04;96631.41;5082028;28;19963;-74
2022/06/04 13:03:14;;;;;;;;;;;;;;;25.16;62.90;96627.81;5024460;28;20351;-74
2022/06/04 13:05:55;;;;;;;;;;;;;;;25.24;62.82;96629.78;5086036;28;19958;-74
2022/06/04 13:08:30;;;;;;;;;;;;;;;25.41;61.31;96618.31;5096685;28;19946;-75
2022/06/04 13:11:51;;;;;;;;;;;;;;;25.52;59.65;96607.00;5014639;28;19957;-74
2022/06/04 13:14:40;;;;;;;;;;;;;;;25.63;59.55;96596.00;5090258;28;19964;-74
2022/06/04 13:17:24;;;;;;;;;;;;;;;25.58;58.38;96588.09;5096519;28;20422;-74
2022/06/04 13:19:55;;;;;;;;;;;;;;;25.57;56.95;96575.75;5083662;28;20460;-74
2022/06/04 13:22:23;;;;;;;;;;;;;;;25.67;59.35;96597.75;5096422;28;19954;-74
2022/06/04 13:24:50;;;;;;;;;;;;;;;25.68;59.73;96612.75;5096545;28;19970;-73
2022/06/04 13:27:18;;;;;;;;;;;;;;;25.45;59.41;96612.06;5096536;28;20006;-75
2022/06/04 13:29:53;;;;;;;;;;;;;;;25.24;61.32;96627.91;5096422;28;20296;-74